sensor_id;sensor_type;location;lat;lon;timestamp;temperature;humidity
8402;DHT22;4238;48.404;9.498;2023-06-14T04:02:23;9.10;1.00
8402;DHT22;4238;48.404;9.498;2023-06-14T04:04:52;9.10;1.00
8402;DHT22;4238;48.404;9.498;2023-06-14T04:07:19;9.20;1.00
8402;DHT22;4238;48.404;9.498;2023-06-14T04:09:46;9.20;1.00
8402;DHT22;4238;48.404;9.498;2023-06-14T04:12:13;9.30;1.00
8402;DHT22;4238;48.404;9.498;2023-06-14T04:14:40;9.40;1.00
8402;DHT22;4238;48.404;9.498;2023-06-14T04:17:07;9.50;1.00
8402;DHT22;4238;48.404;9.498;2023-06-14T04:19:35;9.60;1.00
8402;DHT22;4238;48.404;9.498;2023-06-14T04:22:03;9.70;1.00
8402;DHT22;4238;48.404;9.498;2023-06-14T04:24:30;9.70;1.00
8402;DHT22;4238;48.404;9.498;2023-06-14T04:27:00;9.80;1.00
8402;DHT22;4238;48.404;9.498;2023-06-14T04:29:27;9.80;1.00
8402;DHT22;4238;48.404;9.498;2023-06-14T04:31:55;9.90;1.00
8402;DHT22;4238;48.404;9.498;2023-06-14T04:34:25;10.10;1.00
8402;DHT22;4238;48.404;9.498;2023-06-14T04:36:56;10.30;1.00
8402;DHT22;4238;48.404;9.498;2023-06-14T04:39:25;10.40;99.90
8402;DHT22;4238;48.404;9.498;2023-06-14T04:41:53;10.60;99.90
8402;DHT22;4238;48.404;9.498;2023-06-14T04:44:23;10.80;99.90
8402;DHT22;4238;48.404;9.498;2023-06-14T04:46:55;11.00;99.90
8402;DHT22;4238;48.404;9.498;2023-06-14T04:49:24;11.10;99.90
8402;DHT22;4238;48.404;9.498;2023-06-14T04:51:52;11.30;99.90
8402;DHT22;4238;48.404;9.498;2023-06-14T04:54:26;11.40;1.00
8402;DHT22;4238;48.404;9.498;2023-06-14T04:56:53;11.60;1.00
8402;DHT22;4238;48.404;9.498;2023-06-14T04:59:20;11.80;99.90
8402;DHT22;4238;48.404;9.498;2023-06-14T05:01:48;11.90;99.90
8402;DHT22;4238;48.404;9.498;2023-06-14T05:04:15;12.00;31.50
8402;DHT22;4238;48.404;9.498;2023-06-14T05:06:42;12.10;1.00
8402;DHT22;4238;48.404;9.498;2023-06-14T05:09:10;12.30;1.00
8402;DHT22;4238;48.404;9.498;2023-06-14T05:11:39;12.50;99.90
8402;DHT22;4238;48.404;9.498;2023-06-14T05:14:10;12.60;99.90
8402;DHT22;4238;48.404;9.498;2023-06-14T05:16:37;12.70;41.50
8402;DHT22;4238;48.404;9.498;2023-06-14T05:19:04;12.90;1.00
8402;DHT22;4238;48.404;9.498;2023-06-14T05:21:31;13.20;99.90
8402;DHT22;4238;48.404;9.498;2023-06-14T05:24:00;13.50;1.00
8402;DHT22;4238;48.404;9.498;2023-06-14T05:26:27;13.60;1.00
8402;DHT22;4238;48.404;9.498;2023-06-14T05:28:55;13.80;1.00
8402;DHT22;4238;48.404;9.498;2023-06-14T05:31:23;13.90;78.40
8402;DHT22;4238;48.404;9.498;2023-06-14T05:33:51;14.10;53.60
8402;DHT22;4238;48.404;9.498;2023-06-14T05:36:18;14.20;1.00
8402;DHT22;4238;48.404;9.498;2023-06-14T05:38:46;14.40;1.00
8402;DHT22;4238;48.404;9.498;2023-06-14T05:41:13;14.60;99.90
8402;DHT22;4238;48.404;9.498;2023-06-14T05:43:40;14.80;99.90
8402;DHT22;4238;48.404;9.498;2023-06-14T05:46:09;14.90;99.90
8402;DHT22;4238;48.404;9.498;2023-06-14T05:48:35;15.10;99.90
8402;DHT22;4238;48.404;9.498;2023-06-14T05:51:02;15.40;99.90
8402;DHT22;4238;48.404;9.498;2023-06-14T05:53:29;15.80;1.00
8402;DHT22;4238;48.404;9.498;2023-06-14T05:55:56;16.00;1.00
8402;DHT22;4238;48.404;9.498;2023-06-14T05:58:23;16.30;1.00
8402;DHT22;4238;48.404;9.498;2023-06-14T06:00:50;16.70;1.00
8402;DHT22;4238;48.404;9.498;2023-06-14T06:03:20;17.00;1.00
8402;DHT22;4238;48.404;9.498;2023-06-14T06:05:48;17.20;1.00
8402;DHT22;4238;48.404;9.498;2023-06-14T06:08:15;17.50;99.90
8402;DHT22;4238;48.404;9.498;2023-06-14T06:10:42;17.80;99.90
8402;DHT22;4238;48.404;9.498;2023-06-14T06:13:09;17.90;99.90
8402;DHT22;4238;48.404;9.498;2023-06-14T06:15:36;18.10;15.40
8402;DHT22;4238;48.404;9.498;2023-06-14T06:18:03;18.30;1.00
8402;DHT22;4238;48.404;9.498;2023-06-14T06:20:31;18.60;1.00
8402;DHT22;4238;48.404;9.498;2023-06-14T06:22:58;18.70;1.00
8402;DHT22;4238;48.404;9.498;2023-06-14T06:25:26;18.80;1.00
8402;DHT22;4238;48.404;9.498;2023-06-14T06:27:53;18.80;1.00
8402;DHT22;4238;48.404;9.498;2023-06-14T06:30:21;18.70;1.00
8402;DHT22;4238;48.404;9.498;2023-06-14T06:32:48;19.00;1.00
8402;DHT22;4238;48.404;9.498;2023-06-14T06:35:16;19.10;1.00
8402;DHT22;4238;48.404;9.498;2023-06-14T06:37:44;19.30;1.00
8402;DHT22;4238;48.404;9.498;2023-06-14T06:40:11;19.40;1.00
8402;DHT22;4238;48.404;9.498;2023-06-14T06:42:38;19.50;1.00
8402;DHT22;4238;48.404;9.498;2023-06-14T06:45:06;19.70;1.00
8402;DHT22;4238;48.404;9.498;2023-06-14T06:47:33;19.80;1.00
8402;DHT22;4238;48.404;9.498;2023-06-14T06:49:59;19.50;99.90
8402;DHT22;4238;48.404;9.498;2023-06-14T06:52:27;19.70;99.90
8402;DHT22;4238;48.404;9.498;2023-06-14T06:54:56;19.90;99.90
8402;DHT22;4238;48.404;9.498;2023-06-14T06:57:23;20.20;99.90
8402;DHT22;4238;48.404;9.498;2023-06-14T06:59:50;20.50;99.90
8402;DHT22;4238;48.404;9.498;2023-06-14T07:02:17;20.80;99.90
8402;DHT22;4238;48.404;9.498;2023-06-14T07:04:44;21.00;99.90
8402;DHT22;4238;48.404;9.498;2023-06-14T07:07:12;21.00;99.90
8402;DHT22;4238;48.404;9.498;2023-06-14T07:09:39;21.20;99.90
8402;DHT22;4238;48.404;9.498;2023-06-14T07:12:08;21.10;99.90
8402;DHT22;4238;48.404;9.498;2023-06-14T07:14:36;21.50;99.90
8402;DHT22;4238;48.404;9.498;2023-06-14T07:17:03;21.70;99.90
8402;DHT22;4238;48.404;9.498;2023-06-14T07:19:30;21.60;99.90
8402;DHT22;4238;48.404;9.498;2023-06-14T07:21:57;21.90;99.90
8402;DHT22;4238;48.404;9.498;2023-06-14T07:24:24;21.90;99.90
8402;DHT22;4238;48.404;9.498;2023-06-14T07:26:51;22.00;99.90
8402;DHT22;4238;48.404;9.498;2023-06-14T07:29:20;21.90;99.90
8402;DHT22;4238;48.404;9.498;2023-06-14T07:31:47;22.20;99.90
8402;DHT22;4238;48.404;9.498;2023-06-14T07:34:14;22.30;99.90
8402;DHT22;4238;48.404;9.498;2023-06-14T07:36:40;22.10;99.90
8402;DHT22;4238;48.404;9.498;2023-06-14T07:39:09;22.10;99.90
8402;DHT22;4238;48.404;9.498;2023-06-14T07:41:36;22.30;99.90
8402;DHT22;4238;48.404;9.498;2023-06-14T07:44:03;22.20;99.90
8402;DHT22;4238;48.404;9.498;2023-06-14T07:46:32;22.40;99.90
8402;DHT22;4238;48.404;9.498;2023-06-14T07:49:00;22.70;99.90
8402;DHT22;4238;48.404;9.498;2023-06-14T07:51:27;22.70;99.90
8402;DHT22;4238;48.404;9.498;2023-06-14T07:53:54;22.90;99.90
8402;DHT22;4238;48.404;9.498;2023-06-14T07:56:21;23.00;99.90
8402;DHT22;4238;48.404;9.498;2023-06-14T07:58:48;23.00;99.90
8402;DHT22;4238;48.404;9.498;2023-06-14T08:01:15;23.20;99.90
8402;DHT22;4238;48.404;9.498;2023-06-14T08:03:44;23.40;99.90
8402;DHT22;4238;48.404;9.498;2023-06-14T08:06:10;23.20;99.90
8402;DHT22;4238;48.404;9.498;2023-06-14T08:08:37;23.20;99.90
8402;DHT22;4238;48.404;9.498;2023-06-14T08:11:04;23.60;99.90
8402;DHT22;4238;48.404;9.498;2023-06-14T08:13:31;23.50;99.90
8402;DHT22;4238;48.404;9.498;2023-06-14T08:15:58;23.50;99.90
8402;DHT22;4238;48.404;9.498;2023-06-14T08:18:26;23.90;99.90
8402;DHT22;4238;48.404;9.498;2023-06-14T08:20:55;23.80;99.90
8402;DHT22;4238;48.404;9.498;2023-06-14T08:23:23;24.00;99.90
8402;DHT22;4238;48.404;9.498;2023-06-14T08:25:50;24.00;99.90
8402;DHT22;4238;48.404;9.498;2023-06-14T08:28:17;23.90;99.90
8402;DHT22;4238;48.404;9.498;2023-06-14T08:30:44;23.90;99.90
8402;DHT22;4238;48.404;9.498;2023-06-14T08:33:11;24.00;99.90
8402;DHT22;4238;48.404;9.498;2023-06-14T08:35:37;24.10;99.90
8402;DHT22;4238;48.404;9.498;2023-06-14T08:38:06;23.80;99.90
8402;DHT22;4238;48.404;9.498;2023-06-14T08:40:37;23.90;99.90
8402;DHT22;4238;48.404;9.498;2023-06-14T08:43:04;24.00;99.90
8402;DHT22;4238;48.404;9.498;2023-06-14T08:45:32;24.40;99.90
8402;DHT22;4238;48.404;9.498;2023-06-14T08:47:59;24.10;99.90
8402;DHT22;4238;48.404;9.498;2023-06-14T08:50:27;24.20;99.90
8402;DHT22;4238;48.404;9.498;2023-06-14T08:52:56;24.40;99.90
8402;DHT22;4238;48.404;9.498;2023-06-14T08:55:27;23.90;99.90
8402;DHT22;4238;48.404;9.498;2023-06-14T08:57:56;24.20;99.90
8402;DHT22;4238;48.404;9.498;2023-06-14T09:00:24;24.30;99.90
8402;DHT22;4238;48.404;9.498;2023-06-14T09:02:52;24.60;99.90
8402;DHT22;4238;48.404;9.498;2023-06-14T09:05:23;24.70;99.90
8402;DHT22;4238;48.404;9.498;2023-06-14T09:07:50;24.90;99.90
8402;DHT22;4238;48.404;9.498;2023-06-14T09:10:18;25.30;99.90
8402;DHT22;4238;48.404;9.498;2023-06-14T09:12:46;25.40;99.90
8402;DHT22;4238;48.404;9.498;2023-06-14T09:15:13;25.10;99.90
8402;DHT22;4238;48.404;9.498;2023-06-14T09:17:41;25.20;99.90
8402;DHT22;4238;48.404;9.498;2023-06-14T09:20:09;25.00;99.90
8402;DHT22;4238;48.404;9.498;2023-06-14T09:22:37;25.00;99.90
8402;DHT22;4238;48.404;9.498;2023-06-14T09:25:05;25.10;99.90
8402;DHT22;4238;48.404;9.498;2023-06-14T09:27:33;24.90;99.90
8402;DHT22;4238;48.404;9.498;2023-06-14T09:30:02;25.20;99.90
8402;DHT22;4238;48.404;9.498;2023-06-14T09:32:29;25.30;99.90
8402;DHT22;4238;48.404;9.498;2023-06-14T09:34:57;25.80;99.90
8402;DHT22;4238;48.404;9.498;2023-06-14T09:37:28;25.90;99.90
8402;DHT22;4238;48.404;9.498;2023-06-14T09:39:56;25.70;99.90
8402;DHT22;4238;48.404;9.498;2023-06-14T09:42:23;26.00;99.90
8402;DHT22;4238;48.404;9.498;2023-06-14T09:44:52;25.60;99.90
8402;DHT22;4238;48.404;9.498;2023-06-14T09:47:22;24.70;99.90
8402;DHT22;4238;48.404;9.498;2023-06-14T09:49:50;24.40;99.90
8402;DHT22;4238;48.404;9.498;2023-06-14T09:52:18;24.20;99.90
8402;DHT22;4238;48.404;9.498;2023-06-14T09:54:47;23.90;99.90
8402;DHT22;4238;48.404;9.498;2023-06-14T09:57:15;24.10;99.90
8402;DHT22;4238;48.404;9.498;2023-06-14T09:59:43;23.50;99.90
8402;DHT22;4238;48.404;9.498;2023-06-14T10:02:14;23.00;99.90
8402;DHT22;4238;48.404;9.498;2023-06-14T10:04:51;23.40;99.90
8402;DHT22;4238;48.404;9.498;2023-06-14T10:07:20;23.50;99.90
8402;DHT22;4238;48.404;9.498;2023-06-14T10:09:48;23.30;99.90
8402;DHT22;4238;48.404;9.498;2023-06-14T10:12:16;22.90;99.90
8402;DHT22;4238;48.404;9.498;2023-06-14T10:14:48;22.80;99.90
8402;DHT22;4238;48.404;9.498;2023-06-14T10:17:22;22.40;99.90
8402;DHT22;4238;48.404;9.498;2023-06-14T10:19:55;22.20;99.90
8402;DHT22;4238;48.404;9.498;2023-06-14T10:22:29;23.00;99.90
8402;DHT22;4238;48.404;9.498;2023-06-14T10:24:57;24.00;99.90
8402;DHT22;4238;48.404;9.498;2023-06-14T10:27:24;24.50;99.90
8402;DHT22;4238;48.404;9.498;2023-06-14T10:30:05;24.90;99.90
8402;DHT22;4238;48.404;9.498;2023-06-14T10:32:33;25.20;99.90
8402;DHT22;4238;48.404;9.498;2023-06-14T10:35:05;25.70;99.90
8402;DHT22;4238;48.404;9.498;2023-06-14T10:37:32;26.00;99.90
8402;DHT22;4238;48.404;9.498;2023-06-14T10:39:59;26.10;99.90
8402;DHT22;4238;48.404;9.498;2023-06-14T10:42:32;25.70;99.90
8402;DHT22;4238;48.404;9.498;2023-06-14T10:44:59;25.00;99.90
8402;DHT22;4238;48.404;9.498;2023-06-14T10:47:27;24.50;99.90
8402;DHT22;4238;48.404;9.498;2023-06-14T10:49:57;24.00;99.90
8402;DHT22;4238;48.404;9.498;2023-06-14T10:52:27;24.10;99.90
8402;DHT22;4238;48.404;9.498;2023-06-14T10:55:09;24.60;99.90
8402;DHT22;4238;48.404;9.498;2023-06-14T10:57:37;25.20;99.90
8402;DHT22;4238;48.404;9.498;2023-06-14T11:00:06;25.60;99.90
8402;DHT22;4238;48.404;9.498;2023-06-14T11:02:52;26.00;99.90
8402;DHT22;4238;48.404;9.498;2023-06-14T11:05:24;26.30;99.90
8402;DHT22;4238;48.404;9.498;2023-06-14T11:08:15;26.70;99.90
8402;DHT22;4238;48.404;9.498;2023-06-14T11:10:45;27.10;99.90
8402;DHT22;4238;48.404;9.498;2023-06-14T11:13:12;27.30;99.90
8402;DHT22;4238;48.404;9.498;2023-06-14T11:15:44;27.50;99.90
8402;DHT22;4238;48.404;9.498;2023-06-14T11:18:12;26.80;99.90
8402;DHT22;4238;48.404;9.498;2023-06-14T11:20:40;26.60;99.90
8402;DHT22;4238;48.404;9.498;2023-06-14T11:23:08;26.80;99.90
8402;DHT22;4238;48.404;9.498;2023-06-14T11:25:35;27.00;99.90
8402;DHT22;4238;48.404;9.498;2023-06-14T11:28:02;26.00;99.90
8402;DHT22;4238;48.404;9.498;2023-06-14T11:30:29;26.00;99.90
8402;DHT22;4238;48.404;9.498;2023-06-14T11:32:57;26.40;99.90
8402;DHT22;4238;48.404;9.498;2023-06-14T11:35:24;26.10;99.90
8402;DHT22;4238;48.404;9.498;2023-06-14T11:37:53;26.50;99.90
8402;DHT22;4238;48.404;9.498;2023-06-14T11:40:23;26.50;99.90
8402;DHT22;4238;48.404;9.498;2023-06-14T11:42:58;26.70;99.90
8402;DHT22;4238;48.404;9.498;2023-06-14T11:45:26;27.40;99.90
8402;DHT22;4238;48.404;9.498;2023-06-14T11:47:54;27.30;99.90
8402;DHT22;4238;48.404;9.498;2023-06-14T11:50:22;26.70;99.90
8402;DHT22;4238;48.404;9.498;2023-06-14T11:52:52;27.00;99.90
8402;DHT22;4238;48.404;9.498;2023-06-14T11:55:19;27.30;99.90
8402;DHT22;4238;48.404;9.498;2023-06-14T11:57:48;27.60;99.90
8402;DHT22;4238;48.404;9.498;2023-06-14T12:00:15;27.50;99.90
8402;DHT22;4238;48.404;9.498;2023-06-14T12:02:51;27.20;99.90
8402;DHT22;4238;48.404;9.498;2023-06-14T12:05:20;27.10;99.90
8402;DHT22;4238;48.404;9.498;2023-06-14T12:07:47;27.30;99.90
8402;DHT22;4238;48.404;9.498;2023-06-14T12:10:14;27.30;99.90
8402;DHT22;4238;48.404;9.498;2023-06-14T12:12:41;27.20;99.90
8402;DHT22;4238;48.404;9.498;2023-06-14T12:15:10;27.00;99.90
8402;DHT22;4238;48.404;9.498;2023-06-14T12:17:38;26.90;99.90
8402;DHT22;4238;48.404;9.498;2023-06-14T12:20:08;26.80;99.90
8402;DHT22;4238;48.404;9.498;2023-06-14T12:22:39;27.00;99.90
8402;DHT22;4238;48.404;9.498;2023-06-14T12:25:23;27.00;99.90
8402;DHT22;4238;48.404;9.498;2023-06-14T12:27:52;27.30;99.90
8402;DHT22;4238;48.404;9.498;2023-06-14T12:30:21;27.60;99.90
8402;DHT22;4238;48.404;9.498;2023-06-14T12:32:47;27.40;99.90
8402;DHT22;4238;48.404;9.498;2023-06-14T12:35:17;27.40;99.90
8402;DHT22;4238;48.404;9.498;2023-06-14T12:37:44;27.30;99.90
8402;DHT22;4238;48.404;9.498;2023-06-14T12:40:12;27.70;99.90
8402;DHT22;4238;48.404;9.498;2023-06-14T12:42:39;27.80;99.90
8402;DHT22;4238;48.404;9.498;2023-06-14T12:45:07;27.90;99.90
8402;DHT22;4238;48.404;9.498;2023-06-14T12:47:35;27.80;99.90
8402;DHT22;4238;48.404;9.498;2023-06-14T12:50:02;27.60;99.90
8402;DHT22;4238;48.404;9.498;2023-06-14T12:52:29;27.40;99.90
8402;DHT22;4238;48.404;9.498;2023-06-14T12:54:56;27.20;99.90
8402;DHT22;4238;48.404;9.498;2023-06-14T12:57:23;26.60;99.90
8402;DHT22;4238;48.404;9.498;2023-06-14T12:59:50;27.10;99.90
8402;DHT22;4238;48.404;9.498;2023-06-14T13:02:18;27.70;99.90
8402;DHT22;4238;48.404;9.498;2023-06-14T13:04:48;27.20;99.90
8402;DHT22;4238;48.404;9.498;2023-06-14T13:07:15;27.30;99.90
8402;DHT22;4238;48.404;9.498;2023-06-14T13:09:42;27.40;99.90
8402;DHT22;4238;48.404;9.498;2023-06-14T13:12:10;26.70;99.90
8402;DHT22;4238;48.404;9.498;2023-06-14T13:14:38;25.80;99.90
8402;DHT22;4238;48.404;9.498;2023-06-14T13:17:06;25.90;99.90
8402;DHT22;4238;48.404;9.498;2023-06-14T13:19:33;26.30;99.90
8402;DHT22;4238;48.404;9.498;2023-06-14T13:22:02;26.80;99.90
8402;DHT22;4238;48.404;9.498;2023-06-14T13:24:29;27.00;99.90
8402;DHT22;4238;48.404;9.498;2023-06-14T13:26:56;27.10;99.90
8402;DHT22;4238;48.404;9.498;2023-06-14T13:29:23;26.70;99.90
8402;DHT22;4238;48.404;9.498;2023-06-14T13:31:50;27.20;99.90
8402;DHT22;4238;48.404;9.498;2023-06-14T13:34:18;27.40;99.90
8402;DHT22;4238;48.404;9.498;2023-06-14T13:36:45;27.60;99.90
8402;DHT22;4238;48.404;9.498;2023-06-14T13:39:14;27.60;99.90
8402;DHT22;4238;48.404;9.498;2023-06-14T13:41:41;27.50;99.90
8402;DHT22;4238;48.404;9.498;2023-06-14T13:44:08;27.40;99.90
8402;DHT22;4238;48.404;9.498;2023-06-14T13:46:36;27.40;99.90
8402;DHT22;4238;48.404;9.498;2023-06-14T13:49:03;27.10;99.90
8402;DHT22;4238;48.404;9.498;2023-06-14T13:51:32;26.80;99.90
8402;DHT22;4238;48.404;9.498;2023-06-14T13:54:00;27.20;99.90
8402;DHT22;4238;48.404;9.498;2023-06-14T13:56:29;27.30;99.90
8402;DHT22;4238;48.404;9.498;2023-06-14T13:58:56;27.10;99.90
8402;DHT22;4238;48.404;9.498;2023-06-14T14:01:23;27.10;99.90
8402;DHT22;4238;48.404;9.498;2023-06-14T14:03:51;27.10;99.90
8402;DHT22;4238;48.404;9.498;2023-06-14T14:06:18;26.20;99.90
8402;DHT22;4238;48.404;9.498;2023-06-14T14:08:45;25.20;99.90
8402;DHT22;4238;48.404;9.498;2023-06-14T14:11:12;24.80;99.90
8402;DHT22;4238;48.404;9.498;2023-06-14T14:13:40;24.40;99.90
8402;DHT22;4238;48.404;9.498;2023-06-14T14:16:08;25.00;99.90
8402;DHT22;4238;48.404;9.498;2023-06-14T14:18:36;25.60;99.90
8402;DHT22;4238;48.404;9.498;2023-06-14T14:21:03;25.40;99.90
8402;DHT22;4238;48.404;9.498;2023-06-14T14:23:30;25.70;99.90
8402;DHT22;4238;48.404;9.498;2023-06-14T14:25:57;25.90;99.90
8402;DHT22;4238;48.404;9.498;2023-06-14T14:28:23;26.00;99.90
8402;DHT22;4238;48.404;9.498;2023-06-14T14:30:52;26.00;99.90
8402;DHT22;4238;48.404;9.498;2023-06-14T14:33:19;25.80;99.90
8402;DHT22;4238;48.404;9.498;2023-06-14T14:35:47;26.00;99.90
8402;DHT22;4238;48.404;9.498;2023-06-14T14:38:14;26.30;99.90
8402;DHT22;4238;48.404;9.498;2023-06-14T14:40:42;26.60;99.90
8402;DHT22;4238;48.404;9.498;2023-06-14T14:43:09;26.30;99.90
8402;DHT22;4238;48.404;9.498;2023-06-14T14:45:36;26.20;99.90
8402;DHT22;4238;48.404;9.498;2023-06-14T14:48:05;26.10;99.90
8402;DHT22;4238;48.404;9.498;2023-06-14T14:50:32;26.00;99.90
8402;DHT22;4238;48.404;9.498;2023-06-14T14:52:59;25.80;99.90
8402;DHT22;4238;48.404;9.498;2023-06-14T14:55:26;25.50;99.90
8402;DHT22;4238;48.404;9.498;2023-06-14T14:57:53;25.20;99.90
8402;DHT22;4238;48.404;9.498;2023-06-14T15:00:20;25.50;99.90
8402;DHT22;4238;48.404;9.498;2023-06-14T15:02:47;25.70;99.90
8402;DHT22;4238;48.404;9.498;2023-06-14T15:05:16;25.70;99.90
8402;DHT22;4238;48.404;9.498;2023-06-14T15:07:43;25.60;99.90
8402;DHT22;4238;48.404;9.498;2023-06-14T15:10:11;25.30;99.90
8402;DHT22;4238;48.404;9.498;2023-06-14T15:12:38;25.00;99.90
8402;DHT22;4238;48.404;9.498;2023-06-14T15:15:06;24.60;99.90
8402;DHT22;4238;48.404;9.498;2023-06-14T15:17:34;24.30;99.90
8402;DHT22;4238;48.404;9.498;2023-06-14T15:20:02;24.00;99.90
8402;DHT22;4238;48.404;9.498;2023-06-14T15:22:31;23.80;99.90
8402;DHT22;4238;48.404;9.498;2023-06-14T15:24:58;23.70;99.90
8402;DHT22;4238;48.404;9.498;2023-06-14T15:27:25;23.90;99.90
8402;DHT22;4238;48.404;9.498;2023-06-14T15:29:51;24.30;99.90
8402;DHT22;4238;48.404;9.498;2023-06-14T15:32:18;24.50;99.90
8402;DHT22;4238;48.404;9.498;2023-06-14T15:34:45;24.80;99.90
8402;DHT22;4238;48.404;9.498;2023-06-14T15:37:12;25.00;99.90
8402;DHT22;4238;48.404;9.498;2023-06-14T15:39:40;24.90;99.90
8402;DHT22;4238;48.404;9.498;2023-06-14T15:42:07;25.10;99.90
8402;DHT22;4238;48.404;9.498;2023-06-14T15:44:34;24.80;99.90
8402;DHT22;4238;48.404;9.498;2023-06-14T15:47:02;25.10;99.90
8402;DHT22;4238;48.404;9.498;2023-06-14T15:49:29;25.40;99.90
8402;DHT22;4238;48.404;9.498;2023-06-14T15:51:56;25.40;99.90
8402;DHT22;4238;48.404;9.498;2023-06-14T15:54:23;25.50;99.90
8402;DHT22;4238;48.404;9.498;2023-06-14T15:56:52;25.60;99.90
8402;DHT22;4238;48.404;9.498;2023-06-14T15:59:19;25.20;99.90
8402;DHT22;4238;48.404;9.498;2023-06-14T16:01:46;24.90;99.90
8402;DHT22;4238;48.404;9.498;2023-06-14T16:04:12;24.90;99.90
8402;DHT22;4238;48.404;9.498;2023-06-14T16:06:39;25.10;99.90
8402;DHT22;4238;48.404;9.498;2023-06-14T16:09:06;25.00;99.90
8402;DHT22;4238;48.404;9.498;2023-06-14T16:11:33;25.10;99.90
8402;DHT22;4238;48.404;9.498;2023-06-14T16:14:01;25.30;99.90
8402;DHT22;4238;48.404;9.498;2023-06-14T16:16:29;25.10;99.90
8402;DHT22;4238;48.404;9.498;2023-06-14T16:18:56;24.80;99.90
8402;DHT22;4238;48.404;9.498;2023-06-14T16:21:23;24.90;99.90
8402;DHT22;4238;48.404;9.498;2023-06-14T16:23:50;24.90;99.90
8402;DHT22;4238;48.404;9.498;2023-06-14T16:26:17;25.00;99.90
8402;DHT22;4238;48.404;9.498;2023-06-14T16:28:44;25.00;99.90
8402;DHT22;4238;48.404;9.498;2023-06-14T16:31:12;25.00;99.90
8402;DHT22;4238;48.404;9.498;2023-06-14T16:33:41;24.50;99.90
8402;DHT22;4238;48.404;9.498;2023-06-14T16:36:08;24.40;99.90
8402;DHT22;4238;48.404;9.498;2023-06-14T16:38:35;24.40;99.90
8402;DHT22;4238;48.404;9.498;2023-06-14T16:41:02;24.20;99.90
8402;DHT22;4238;48.404;9.498;2023-06-14T16:43:29;24.10;99.90
8402;DHT22;4238;48.404;9.498;2023-06-14T16:45:56;23.80;99.90
8402;DHT22;4238;48.404;9.498;2023-06-14T16:48:24;23.70;99.90
8402;DHT22;4238;48.404;9.498;2023-06-14T16:50:51;23.50;99.90
8402;DHT22;4238;48.404;9.498;2023-06-14T16:53:18;23.60;99.90
8402;DHT22;4238;48.404;9.498;2023-06-14T16:55:45;23.50;99.90
8402;DHT22;4238;48.404;9.498;2023-06-14T16:58:12;23.50;99.90
8402;DHT22;4238;48.404;9.498;2023-06-14T17:00:39;23.40;99.90
8402;DHT22;4238;48.404;9.498;2023-06-14T17:03:05;23.40;99.90
8402;DHT22;4238;48.404;9.498;2023-06-14T17:05:34;23.40;99.90
8402;DHT22;4238;48.404;9.498;2023-06-14T17:08:01;23.30;99.90
8402;DHT22;4238;48.404;9.498;2023-06-14T17:10:27;23.40;99.90
8402;DHT22;4238;48.404;9.498;2023-06-14T17:12:55;23.30;99.90
8402;DHT22;4238;48.404;9.498;2023-06-14T17:15:21;23.00;99.90
8402;DHT22;4238;48.404;9.498;2023-06-14T17:17:48;22.90;99.90
8402;DHT22;4238;48.404;9.498;2023-06-14T17:20:15;22.80;99.90
8402;DHT22;4238;48.404;9.498;2023-06-14T17:22:44;22.40;99.90
8402;DHT22;4238;48.404;9.498;2023-06-14T17:25:10;22.40;99.90
8402;DHT22;4238;48.404;9.498;2023-06-14T17:27:37;22.30;99.90
8402;DHT22;4238;48.404;9.498;2023-06-14T17:30:05;22.40;99.90
8402;DHT22;4238;48.404;9.498;2023-06-14T17:32:32;22.40;99.90
8402;DHT22;4238;48.404;9.498;2023-06-14T17:34:59;22.30;99.90
8402;DHT22;4238;48.404;9.498;2023-06-14T17:37:28;22.20;99.90
8402;DHT22;4238;48.404;9.498;2023-06-14T17:39:56;22.10;99.90
8402;DHT22;4238;48.404;9.498;2023-06-14T17:42:23;22.10;99.90
8402;DHT22;4238;48.404;9.498;2023-06-14T17:44:50;22.10;99.90
8402;DHT22;4238;48.404;9.498;2023-06-14T17:47:21;22.10;99.90
8402;DHT22;4238;48.404;9.498;2023-06-14T17:49:47;22.10;99.90
8402;DHT22;4238;48.404;9.498;2023-06-14T17:52:16;22.00;99.90
8402;DHT22;4238;48.404;9.498;2023-06-14T17:54:43;21.90;99.90
8402;DHT22;4238;48.404;9.498;2023-06-14T17:57:12;21.80;99.90
8402;DHT22;4238;48.404;9.498;2023-06-14T17:59:40;21.60;99.90
8402;DHT22;4238;48.404;9.498;2023-06-14T18:02:07;21.40;99.90
8402;DHT22;4238;48.404;9.498;2023-06-14T18:04:34;21.30;99.90
8402;DHT22;4238;48.404;9.498;2023-06-14T18:07:01;21.30;99.90
8402;DHT22;4238;48.404;9.498;2023-06-14T18:09:28;21.10;99.90
8402;DHT22;4238;48.404;9.498;2023-06-14T18:11:55;21.10;99.90
8402;DHT22;4238;48.404;9.498;2023-06-14T18:14:24;21.10;99.90
8402;DHT22;4238;48.404;9.498;2023-06-14T18:16:51;20.90;99.90
8402;DHT22;4238;48.404;9.498;2023-06-14T18:19:18;21.60;99.90
8402;DHT22;4238;48.404;9.498;2023-06-14T18:21:46;21.80;99.90
8402;DHT22;4238;48.404;9.498;2023-06-14T18:24:13;22.00;99.90
8402;DHT22;4238;48.404;9.498;2023-06-14T18:26:40;22.40;99.90
8402;DHT22;4238;48.404;9.498;2023-06-14T18:29:07;22.80;99.90
8402;DHT22;4238;48.404;9.498;2023-06-14T18:31:36;23.00;99.90
8402;DHT22;4238;48.404;9.498;2023-06-14T18:34:02;23.60;99.90
8402;DHT22;4238;48.404;9.498;2023-06-14T18:36:32;23.70;99.90
8402;DHT22;4238;48.404;9.498;2023-06-14T18:38:59;23.50;99.90
8402;DHT22;4238;48.404;9.498;2023-06-14T18:41:26;23.00;99.90
8402;DHT22;4238;48.404;9.498;2023-06-14T18:43:53;22.70;99.90
8402;DHT22;4238;48.404;9.498;2023-06-14T18:46:19;22.30;99.90
8402;DHT22;4238;48.404;9.498;2023-06-14T18:48:48;22.10;99.90
8402;DHT22;4238;48.404;9.498;2023-06-14T18:51:15;21.70;99.90
8402;DHT22;4238;48.404;9.498;2023-06-14T18:53:42;21.30;99.90
8402;DHT22;4238;48.404;9.498;2023-06-14T18:56:09;20.90;99.90
8402;DHT22;4238;48.404;9.498;2023-06-14T18:58:36;20.70;99.90
8402;DHT22;4238;48.404;9.498;2023-06-14T19:01:03;20.50;99.90
8402;DHT22;4238;48.404;9.498;2023-06-14T19:03:30;20.40;99.90
8402;DHT22;4238;48.404;9.498;2023-06-14T19:05:58;20.30;99.90
8402;DHT22;4238;48.404;9.498;2023-06-14T19:08:25;20.10;99.90
8402;DHT22;4238;48.404;9.498;2023-06-14T19:10:52;19.80;99.90
8402;DHT22;4238;48.404;9.498;2023-06-14T19:13:19;19.60;99.90
8402;DHT22;4238;48.404;9.498;2023-06-14T19:15:46;19.50;99.90
8402;DHT22;4238;48.404;9.498;2023-06-14T19:18:16;19.30;99.90
8402;DHT22;4238;48.404;9.498;2023-06-14T19:20:43;19.00;99.90
8402;DHT22;4238;48.404;9.498;2023-06-14T19:23:11;18.80;99.90
8402;DHT22;4238;48.404;9.498;2023-06-14T19:25:38;18.60;99.90
8402;DHT22;4238;48.404;9.498;2023-06-14T19:28:05;18.50;99.90
8402;DHT22;4238;48.404;9.498;2023-06-14T19:30:32;18.40;99.90
8402;DHT22;4238;48.404;9.498;2023-06-14T19:32:59;18.40;99.90
8402;DHT22;4238;48.404;9.498;2023-06-14T19:35:26;18.40;99.90
8402;DHT22;4238;48.404;9.498;2023-06-14T19:37:52;18.40;99.90
8402;DHT22;4238;48.404;9.498;2023-06-14T19:40:21;18.00;99.90
8402;DHT22;4238;48.404;9.498;2023-06-14T19:42:48;17.80;99.90
8402;DHT22;4238;48.404;9.498;2023-06-14T19:45:15;17.40;99.90
8402;DHT22;4238;48.404;9.498;2023-06-14T19:47:41;17.20;99.90
8402;DHT22;4238;48.404;9.498;2023-06-14T19:50:10;17.00;99.90
8402;DHT22;4238;48.404;9.498;2023-06-14T19:52:37;16.80;99.90
8402;DHT22;4238;48.404;9.498;2023-06-14T19:55:04;16.70;99.90
8402;DHT22;4238;48.404;9.498;2023-06-14T19:57:32;16.70;99.90
8402;DHT22;4238;48.404;9.498;2023-06-14T19:59:59;16.50;99.90
8402;DHT22;4238;48.404;9.498;2023-06-14T20:02:29;16.40;99.90
8402;DHT22;4238;48.404;9.498;2023-06-14T20:04:56;16.50;99.90
8402;DHT22;4238;48.404;9.498;2023-06-14T20:07:23;16.40;99.90
8402;DHT22;4238;48.404;9.498;2023-06-14T20:09:50;16.40;99.90